Terminal Aerodrome Forecast
Issued by NWS Newport/Morehead City, NC

Home | Current Version | Previous Version | Graphics & Text | Print | Product List | Glossary On
Versions: 1 2 3 4 5 6 7 8 9 10 11 12 13 14 15 16 17 18 19 20 21
000
FTUS42 KMHX 281400 AAA
TAFEWN
TAF AMD
KEWN 281429Z 2814/2912 05005KT P6SM SCT010
      TEMPO 2814/2816 BKN010
     FM281600 05006KT P6SM SCT080
     FM290900 00000KT 3SM BR BKN250=

USA.gov is the U.S. government's official web portal to all federal, state and local government web resources and services.